sensor_id;sensor_type;location;lat;lon;timestamp;P1;durP1;ratioP1;P2;durP2;ratioP2
75512;SDS011;64090;49.770;18.760;2023-11-21T00:02:01;3.00;;;2.00;;
75512;SDS011;64090;49.770;18.760;2023-11-21T00:05:04;4.40;;;2.30;;
75512;SDS011;64090;49.770;18.760;2023-11-21T00:08:07;3.40;;;2.20;;
75512;SDS011;64090;49.770;18.760;2023-11-21T00:11:11;5.80;;;2.30;;
75512;SDS011;64090;49.770;18.760;2023-11-21T00:14:13;4.40;;;2.20;;
75512;SDS011;64090;49.770;18.760;2023-11-21T00:17:17;3.20;;;1.90;;
75512;SDS011;64090;49.770;18.760;2023-11-21T00:20:20;3.20;;;2.50;;
75512;SDS011;64090;49.770;18.760;2023-11-21T00:23:24;3.70;;;2.00;;
75512;SDS011;64090;49.770;18.760;2023-11-21T00:26:27;4.50;;;2.20;;
75512;SDS011;64090;49.770;18.760;2023-11-21T00:29:30;3.70;;;1.50;;
75512;SDS011;64090;49.770;18.760;2023-11-21T00:32:32;3.10;;;2.00;;
75512;SDS011;64090;49.770;18.760;2023-11-21T00:35:36;3.80;;;1.50;;
75512;SDS011;64090;49.770;18.760;2023-11-21T00:38:39;2.50;;;1.40;;
75512;SDS011;64090;49.770;18.760;2023-11-21T00:41:42;2.70;;;1.30;;
75512;SDS011;64090;49.770;18.760;2023-11-21T00:44:47;4.20;;;2.10;;
75512;SDS011;64090;49.770;18.760;2023-11-21T00:47:50;3.50;;;1.40;;
75512;SDS011;64090;49.770;18.760;2023-11-21T00:50:53;3.70;;;1.60;;
75512;SDS011;64090;49.770;18.760;2023-11-21T00:53:56;2.00;;;1.30;;
75512;SDS011;64090;49.770;18.760;2023-11-21T00:56:59;6.10;;;2.30;;
75512;SDS011;64090;49.770;18.760;2023-11-21T01:00:02;4.60;;;1.50;;
75512;SDS011;64090;49.770;18.760;2023-11-21T01:03:10;3.20;;;1.90;;
75512;SDS011;64090;49.770;18.760;2023-11-21T01:06:13;5.80;;;2.10;;
75512;SDS011;64090;49.770;18.760;2023-11-21T01:09:17;4.20;;;2.00;;
75512;SDS011;64090;49.770;18.760;2023-11-21T01:12:21;3.70;;;1.60;;
75512;SDS011;64090;49.770;18.760;2023-11-21T01:15:23;3.60;;;2.00;;
75512;SDS011;64090;49.770;18.760;2023-11-21T01:18:28;1.90;;;1.20;;
75512;SDS011;64090;49.770;18.760;2023-11-21T01:21:31;3.10;;;1.50;;
75512;SDS011;64090;49.770;18.760;2023-11-21T01:24:34;4.90;;;1.90;;
75512;SDS011;64090;49.770;18.760;2023-11-21T01:27:37;4.80;;;2.10;;
75512;SDS011;64090;49.770;18.760;2023-11-21T01:30:40;3.60;;;1.90;;
75512;SDS011;64090;49.770;18.760;2023-11-21T01:33:43;4.40;;;2.10;;
75512;SDS011;64090;49.770;18.760;2023-11-21T01:36:46;3.40;;;1.80;;
75512;SDS011;64090;49.770;18.760;2023-11-21T01:39:49;3.80;;;2.00;;
75512;SDS011;64090;49.770;18.760;2023-11-21T01:42:52;4.50;;;1.80;;
75512;SDS011;64090;49.770;18.760;2023-11-21T01:45:55;4.10;;;1.80;;
75512;SDS011;64090;49.770;18.760;2023-11-21T01:48:59;3.30;;;1.60;;
75512;SDS011;64090;49.770;18.760;2023-11-21T01:52:02;4.60;;;2.20;;
75512;SDS011;64090;49.770;18.760;2023-11-21T01:55:07;5.60;;;2.70;;
75512;SDS011;64090;49.770;18.760;2023-11-21T01:58:20;4.80;;;2.00;;
75512;SDS011;64090;49.770;18.760;2023-11-21T02:01:24;3.40;;;2.40;;
75512;SDS011;64090;49.770;18.760;2023-11-21T02:04:28;4.20;;;2.40;;
75512;SDS011;64090;49.770;18.760;2023-11-21T02:07:31;3.70;;;2.00;;
75512;SDS011;64090;49.770;18.760;2023-11-21T02:10:34;4.60;;;2.30;;
75512;SDS011;64090;49.770;18.760;2023-11-21T02:13:39;3.30;;;2.20;;
75512;SDS011;64090;49.770;18.760;2023-11-21T02:16:45;4.00;;;1.90;;
75512;SDS011;64090;49.770;18.760;2023-11-21T02:19:52;3.50;;;2.20;;
75512;SDS011;64090;49.770;18.760;2023-11-21T02:22:55;3.90;;;1.80;;
75512;SDS011;64090;49.770;18.760;2023-11-21T02:26:03;2.50;;;1.80;;
75512;SDS011;64090;49.770;18.760;2023-11-21T02:29:06;3.80;;;2.10;;
75512;SDS011;64090;49.770;18.760;2023-11-21T02:32:13;3.20;;;1.90;;
75512;SDS011;64090;49.770;18.760;2023-11-21T02:35:17;2.90;;;1.70;;
75512;SDS011;64090;49.770;18.760;2023-11-21T02:38:20;4.40;;;2.10;;
75512;SDS011;64090;49.770;18.760;2023-11-21T02:41:23;2.80;;;1.40;;
75512;SDS011;64090;49.770;18.760;2023-11-21T02:44:26;4.00;;;1.90;;
75512;SDS011;64090;49.770;18.760;2023-11-21T02:47:29;2.90;;;1.80;;
75512;SDS011;64090;49.770;18.760;2023-11-21T02:50:32;3.70;;;1.50;;
75512;SDS011;64090;49.770;18.760;2023-11-21T02:53:35;4.40;;;1.90;;
75512;SDS011;64090;49.770;18.760;2023-11-21T02:56:38;3.00;;;1.60;;
75512;SDS011;64090;49.770;18.760;2023-11-21T02:59:42;2.70;;;1.70;;
75512;SDS011;64090;49.770;18.760;2023-11-21T03:02:45;4.30;;;2.20;;
75512;SDS011;64090;49.770;18.760;2023-11-21T03:05:50;2.10;;;1.50;;
75512;SDS011;64090;49.770;18.760;2023-11-21T03:08:53;3.20;;;2.00;;
75512;SDS011;64090;49.770;18.760;2023-11-21T03:11:56;2.30;;;1.50;;
75512;SDS011;64090;49.770;18.760;2023-11-21T03:14:58;4.00;;;1.50;;
75512;SDS011;64090;49.770;18.760;2023-11-21T03:18:02;5.20;;;1.70;;
75512;SDS011;64090;49.770;18.760;2023-11-21T03:21:06;4.10;;;2.50;;
75512;SDS011;64090;49.770;18.760;2023-11-21T03:24:12;2.90;;;1.70;;
75512;SDS011;64090;49.770;18.760;2023-11-21T03:27:15;3.30;;;1.80;;
75512;SDS011;64090;49.770;18.760;2023-11-21T03:30:18;3.90;;;2.00;;
75512;SDS011;64090;49.770;18.760;2023-11-21T03:33:21;3.50;;;1.90;;
75512;SDS011;64090;49.770;18.760;2023-11-21T03:36:23;3.10;;;1.50;;
75512;SDS011;64090;49.770;18.760;2023-11-21T03:39:27;3.40;;;2.40;;
75512;SDS011;64090;49.770;18.760;2023-11-21T03:42:32;3.70;;;1.50;;
75512;SDS011;64090;49.770;18.760;2023-11-21T03:45:34;4.50;;;2.00;;
75512;SDS011;64090;49.770;18.760;2023-11-21T03:48:38;2.80;;;1.80;;
75512;SDS011;64090;49.770;18.760;2023-11-21T03:51:41;3.20;;;2.00;;
75512;SDS011;64090;49.770;18.760;2023-11-21T03:54:44;2.90;;;1.40;;
75512;SDS011;64090;49.770;18.760;2023-11-21T03:57:46;2.30;;;1.60;;
75512;SDS011;64090;49.770;18.760;2023-11-21T04:00:49;3.70;;;2.00;;
75512;SDS011;64090;49.770;18.760;2023-11-21T04:03:52;3.60;;;2.10;;
75512;SDS011;64090;49.770;18.760;2023-11-21T04:06:55;4.50;;;2.00;;
75512;SDS011;64090;49.770;18.760;2023-11-21T04:09:59;4.40;;;1.80;;
75512;SDS011;64090;49.770;18.760;2023-11-21T04:13:02;3.50;;;1.50;;
75512;SDS011;64090;49.770;18.760;2023-11-21T04:16:06;3.80;;;2.10;;
75512;SDS011;64090;49.770;18.760;2023-11-21T04:19:10;3.60;;;2.20;;
75512;SDS011;64090;49.770;18.760;2023-11-21T04:22:13;3.30;;;2.20;;
75512;SDS011;64090;49.770;18.760;2023-11-21T04:25:16;4.90;;;1.90;;
75512;SDS011;64090;49.770;18.760;2023-11-21T04:28:19;3.90;;;2.50;;
75512;SDS011;64090;49.770;18.760;2023-11-21T04:31:22;2.50;;;1.70;;
75512;SDS011;64090;49.770;18.760;2023-11-21T04:34:26;4.20;;;2.90;;
75512;SDS011;64090;49.770;18.760;2023-11-21T04:37:28;7.20;;;2.20;;
75512;SDS011;64090;49.770;18.760;2023-11-21T04:40:31;2.70;;;1.90;;
75512;SDS011;64090;49.770;18.760;2023-11-21T04:43:34;3.90;;;2.30;;
75512;SDS011;64090;49.770;18.760;2023-11-21T04:46:37;4.90;;;2.20;;
75512;SDS011;64090;49.770;18.760;2023-11-21T04:49:41;3.30;;;2.10;;
75512;SDS011;64090;49.770;18.760;2023-11-21T04:52:45;3.70;;;2.20;;
75512;SDS011;64090;49.770;18.760;2023-11-21T04:55:48;3.90;;;2.50;;
75512;SDS011;64090;49.770;18.760;2023-11-21T04:58:52;4.10;;;2.80;;
75512;SDS011;64090;49.770;18.760;2023-11-21T05:01:56;7.10;;;2.30;;
75512;SDS011;64090;49.770;18.760;2023-11-21T05:04:59;4.10;;;2.60;;
75512;SDS011;64090;49.770;18.760;2023-11-21T05:08:03;2.50;;;1.80;;
75512;SDS011;64090;49.770;18.760;2023-11-21T05:11:06;5.00;;;2.50;;
75512;SDS011;64090;49.770;18.760;2023-11-21T05:14:09;3.70;;;2.50;;
75512;SDS011;64090;49.770;18.760;2023-11-21T05:17:12;7.00;;;3.30;;
75512;SDS011;64090;49.770;18.760;2023-11-21T05:20:16;3.70;;;2.60;;
75512;SDS011;64090;49.770;18.760;2023-11-21T05:23:26;5.60;;;3.40;;
75512;SDS011;64090;49.770;18.760;2023-11-21T05:26:29;4.80;;;2.90;;
75512;SDS011;64090;49.770;18.760;2023-11-21T05:29:31;5.10;;;2.80;;
75512;SDS011;64090;49.770;18.760;2023-11-21T05:32:34;3.00;;;2.20;;
75512;SDS011;64090;49.770;18.760;2023-11-21T05:35:37;4.30;;;2.90;;
75512;SDS011;64090;49.770;18.760;2023-11-21T05:38:40;4.00;;;2.20;;
75512;SDS011;64090;49.770;18.760;2023-11-21T05:41:44;5.10;;;2.60;;
75512;SDS011;64090;49.770;18.760;2023-11-21T05:44:49;3.50;;;2.50;;
75512;SDS011;64090;49.770;18.760;2023-11-21T05:47:52;3.00;;;1.90;;
75512;SDS011;64090;49.770;18.760;2023-11-21T05:50:55;4.30;;;3.10;;
75512;SDS011;64090;49.770;18.760;2023-11-21T05:53:57;4.80;;;3.20;;
75512;SDS011;64090;49.770;18.760;2023-11-21T05:57:00;4.70;;;3.10;;
75512;SDS011;64090;49.770;18.760;2023-11-21T06:00:07;5.10;;;3.40;;
75512;SDS011;64090;49.770;18.760;2023-11-21T06:03:28;5.90;;;3.30;;
75512;SDS011;64090;49.770;18.760;2023-11-21T06:06:32;5.80;;;3.40;;
75512;SDS011;64090;49.770;18.760;2023-11-21T06:09:35;5.70;;;3.60;;
75512;SDS011;64090;49.770;18.760;2023-11-21T06:12:38;4.70;;;3.10;;
75512;SDS011;64090;49.770;18.760;2023-11-21T06:15:42;4.90;;;3.00;;
75512;SDS011;64090;49.770;18.760;2023-11-21T06:18:45;6.10;;;3.80;;
75512;SDS011;64090;49.770;18.760;2023-11-21T06:21:48;5.00;;;3.10;;
75512;SDS011;64090;49.770;18.760;2023-11-21T06:24:51;6.10;;;3.90;;
75512;SDS011;64090;49.770;18.760;2023-11-21T06:27:54;7.00;;;4.50;;
75512;SDS011;64090;49.770;18.760;2023-11-21T06:30:57;9.70;;;6.50;;
75512;SDS011;64090;49.770;18.760;2023-11-21T06:34:00;10.00;;;5.60;;
75512;SDS011;64090;49.770;18.760;2023-11-21T06:37:03;9.00;;;5.80;;
75512;SDS011;64090;49.770;18.760;2023-11-21T06:40:06;7.80;;;4.00;;
75512;SDS011;64090;49.770;18.760;2023-11-21T06:43:10;10.40;;;5.70;;
75512;SDS011;64090;49.770;18.760;2023-11-21T06:46:13;9.70;;;5.30;;
75512;SDS011;64090;49.770;18.760;2023-11-21T06:49:19;8.60;;;5.80;;
75512;SDS011;64090;49.770;18.760;2023-11-21T06:52:22;8.40;;;5.00;;
75512;SDS011;64090;49.770;18.760;2023-11-21T06:55:25;6.70;;;4.70;;
75512;SDS011;64090;49.770;18.760;2023-11-21T06:58:28;8.70;;;4.30;;
75512;SDS011;64090;49.770;18.760;2023-11-21T07:01:31;6.00;;;3.60;;
75512;SDS011;64090;49.770;18.760;2023-11-21T07:04:41;8.40;;;5.10;;
75512;SDS011;64090;49.770;18.760;2023-11-21T07:07:44;8.00;;;4.70;;
75512;SDS011;64090;49.770;18.760;2023-11-21T07:10:48;7.80;;;4.70;;
75512;SDS011;64090;49.770;18.760;2023-11-21T07:13:51;8.70;;;5.10;;
75512;SDS011;64090;49.770;18.760;2023-11-21T07:16:54;7.30;;;4.30;;
75512;SDS011;64090;49.770;18.760;2023-11-21T07:19:57;6.80;;;4.10;;
75512;SDS011;64090;49.770;18.760;2023-11-21T07:23:01;6.20;;;3.60;;
75512;SDS011;64090;49.770;18.760;2023-11-21T07:26:03;4.70;;;3.30;;
75512;SDS011;64090;49.770;18.760;2023-11-21T07:29:11;5.70;;;3.40;;
75512;SDS011;64090;49.770;18.760;2023-11-21T07:32:16;6.00;;;3.40;;
75512;SDS011;64090;49.770;18.760;2023-11-21T07:35:19;5.30;;;4.10;;
75512;SDS011;64090;49.770;18.760;2023-11-21T07:38:22;6.30;;;4.10;;
75512;SDS011;64090;49.770;18.760;2023-11-21T07:41:25;6.70;;;3.80;;
75512;SDS011;64090;49.770;18.760;2023-11-21T07:44:33;7.00;;;3.70;;
75512;SDS011;64090;49.770;18.760;2023-11-21T07:47:36;5.20;;;2.90;;
75512;SDS011;64090;49.770;18.760;2023-11-21T07:50:39;3.40;;;2.70;;
75512;SDS011;64090;49.770;18.760;2023-11-21T07:53:42;4.70;;;3.10;;
75512;SDS011;64090;49.770;18.760;2023-11-21T07:56:44;4.90;;;3.40;;
75512;SDS011;64090;49.770;18.760;2023-11-21T07:59:47;6.70;;;4.70;;
75512;SDS011;64090;49.770;18.760;2023-11-21T08:02:50;7.00;;;4.70;;
75512;SDS011;64090;49.770;18.760;2023-11-21T08:05:53;8.00;;;5.10;;
75512;SDS011;64090;49.770;18.760;2023-11-21T08:08:57;6.80;;;4.80;;
75512;SDS011;64090;49.770;18.760;2023-11-21T08:12:00;6.00;;;4.60;;
75512;SDS011;64090;49.770;18.760;2023-11-21T08:15:05;8.10;;;4.70;;
75512;SDS011;64090;49.770;18.760;2023-11-21T08:18:08;5.50;;;4.10;;
75512;SDS011;64090;49.770;18.760;2023-11-21T08:21:14;7.40;;;4.80;;
75512;SDS011;64090;49.770;18.760;2023-11-21T08:24:17;7.80;;;4.90;;
75512;SDS011;64090;49.770;18.760;2023-11-21T08:27:19;6.40;;;4.30;;
75512;SDS011;64090;49.770;18.760;2023-11-21T08:30:22;6.70;;;3.90;;
75512;SDS011;64090;49.770;18.760;2023-11-21T08:33:26;6.60;;;4.70;;
75512;SDS011;64090;49.770;18.760;2023-11-21T08:36:30;7.30;;;4.00;;
75512;SDS011;64090;49.770;18.760;2023-11-21T08:39:34;6.60;;;4.70;;
75512;SDS011;64090;49.770;18.760;2023-11-21T08:42:37;6.30;;;4.60;;
75512;SDS011;64090;49.770;18.760;2023-11-21T08:45:40;6.80;;;4.30;;
75512;SDS011;64090;49.770;18.760;2023-11-21T08:48:43;9.50;;;5.60;;
75512;SDS011;64090;49.770;18.760;2023-11-21T08:51:46;8.60;;;4.70;;
75512;SDS011;64090;49.770;18.760;2023-11-21T08:54:49;6.00;;;4.20;;
75512;SDS011;64090;49.770;18.760;2023-11-21T08:57:58;8.50;;;4.80;;
75512;SDS011;64090;49.770;18.760;2023-11-21T09:01:04;5.40;;;3.70;;
75512;SDS011;64090;49.770;18.760;2023-11-21T09:04:07;5.80;;;4.40;;
75512;SDS011;64090;49.770;18.760;2023-11-21T09:07:10;4.90;;;3.00;;
75512;SDS011;64090;49.770;18.760;2023-11-21T09:10:13;9.80;;;5.80;;
75512;SDS011;64090;49.770;18.760;2023-11-21T09:13:17;8.60;;;4.90;;
75512;SDS011;64090;49.770;18.760;2023-11-21T09:16:20;9.70;;;5.50;;
75512;SDS011;64090;49.770;18.760;2023-11-21T09:19:23;9.70;;;7.30;;
75512;SDS011;64090;49.770;18.760;2023-11-21T09:22:26;8.60;;;5.30;;
75512;SDS011;64090;49.770;18.760;2023-11-21T09:25:29;11.10;;;8.60;;
75512;SDS011;64090;49.770;18.760;2023-11-21T09:28:32;10.10;;;6.70;;
75512;SDS011;64090;49.770;18.760;2023-11-21T09:31:35;14.60;;;9.80;;
75512;SDS011;64090;49.770;18.760;2023-11-21T09:34:38;14.10;;;9.60;;
75512;SDS011;64090;49.770;18.760;2023-11-21T09:37:41;13.30;;;11.00;;
75512;SDS011;64090;49.770;18.760;2023-11-21T09:40:46;7.10;;;4.50;;
75512;SDS011;64090;49.770;18.760;2023-11-21T09:43:50;5.20;;;3.60;;
75512;SDS011;64090;49.770;18.760;2023-11-21T09:46:57;6.30;;;4.10;;
75512;SDS011;64090;49.770;18.760;2023-11-21T09:50:02;6.90;;;5.30;;
75512;SDS011;64090;49.770;18.760;2023-11-21T09:56:18;4.70;;;3.00;;
75512;SDS011;64090;49.770;18.760;2023-11-21T09:59:27;5.60;;;3.80;;
75512;SDS011;64090;49.770;18.760;2023-11-21T10:02:34;5.70;;;3.20;;
75512;SDS011;64090;49.770;18.760;2023-11-21T10:05:39;6.90;;;4.40;;
75512;SDS011;64090;49.770;18.760;2023-11-21T10:08:44;5.90;;;4.10;;
75512;SDS011;64090;49.770;18.760;2023-11-21T10:11:57;6.40;;;4.30;;
75512;SDS011;64090;49.770;18.760;2023-11-21T10:15:03;6.20;;;4.00;;
75512;SDS011;64090;49.770;18.760;2023-11-21T10:18:10;6.40;;;5.10;;
75512;SDS011;64090;49.770;18.760;2023-11-21T10:21:13;7.80;;;5.70;;
75512;SDS011;64090;49.770;18.760;2023-11-21T10:24:16;6.20;;;4.30;;
75512;SDS011;64090;49.770;18.760;2023-11-21T10:27:20;8.40;;;5.70;;
75512;SDS011;64090;49.770;18.760;2023-11-21T10:30:27;6.50;;;4.40;;
75512;SDS011;64090;49.770;18.760;2023-11-21T10:33:31;6.90;;;5.80;;
75512;SDS011;64090;49.770;18.760;2023-11-21T10:36:35;6.80;;;5.60;;
75512;SDS011;64090;49.770;18.760;2023-11-21T10:39:39;7.10;;;4.40;;
75512;SDS011;64090;49.770;18.760;2023-11-21T10:42:42;6.10;;;4.00;;
75512;SDS011;64090;49.770;18.760;2023-11-21T10:45:45;5.30;;;3.80;;
75512;SDS011;64090;49.770;18.760;2023-11-21T10:48:54;7.60;;;4.10;;
75512;SDS011;64090;49.770;18.760;2023-11-21T10:51:59;4.10;;;2.70;;
75512;SDS011;64090;49.770;18.760;2023-11-21T10:55:03;5.70;;;3.00;;
75512;SDS011;64090;49.770;18.760;2023-11-21T10:58:18;6.90;;;3.40;;
75512;SDS011;64090;49.770;18.760;2023-11-21T11:01:21;6.00;;;2.90;;
75512;SDS011;64090;49.770;18.760;2023-11-21T11:04:28;4.60;;;2.60;;
75512;SDS011;64090;49.770;18.760;2023-11-21T11:07:31;4.00;;;2.70;;
75512;SDS011;64090;49.770;18.760;2023-11-21T11:10:36;4.40;;;2.40;;
75512;SDS011;64090;49.770;18.760;2023-11-21T11:13:42;4.20;;;2.60;;
75512;SDS011;64090;49.770;18.760;2023-11-21T11:16:48;4.10;;;2.30;;
75512;SDS011;64090;49.770;18.760;2023-11-21T11:19:52;5.20;;;2.90;;
75512;SDS011;64090;49.770;18.760;2023-11-21T11:23:10;11.30;;;5.40;;
75512;SDS011;64090;49.770;18.760;2023-11-21T11:36:29;5.50;;;3.30;;
75512;SDS011;64090;49.770;18.760;2023-11-21T11:39:38;5.60;;;3.40;;
75512;SDS011;64090;49.770;18.760;2023-11-21T11:43:00;6.20;;;3.60;;
75512;SDS011;64090;49.770;18.760;2023-11-21T11:46:07;6.60;;;3.60;;
75512;SDS011;64090;49.770;18.760;2023-11-21T11:49:10;5.70;;;4.20;;
75512;SDS011;64090;49.770;18.760;2023-11-21T11:55:57;5.60;;;2.80;;
75512;SDS011;64090;49.770;18.760;2023-11-21T11:59:21;5.10;;;2.70;;
75512;SDS011;64090;49.770;18.760;2023-11-21T12:02:24;6.20;;;3.30;;
75512;SDS011;64090;49.770;18.760;2023-11-21T12:05:27;7.10;;;3.90;;
75512;SDS011;64090;49.770;18.760;2023-11-21T12:08:30;7.10;;;3.40;;
75512;SDS011;64090;49.770;18.760;2023-11-21T12:11:34;8.10;;;3.50;;
75512;SDS011;64090;49.770;18.760;2023-11-21T12:14:39;10.60;;;5.30;;
75512;SDS011;64090;49.770;18.760;2023-11-21T12:17:43;5.10;;;3.70;;
75512;SDS011;64090;49.770;18.760;2023-11-21T12:20:47;7.00;;;3.50;;
75512;SDS011;64090;49.770;18.760;2023-11-21T12:23:52;6.00;;;3.20;;
75512;SDS011;64090;49.770;18.760;2023-11-21T12:26:55;7.50;;;4.80;;
75512;SDS011;64090;49.770;18.760;2023-11-21T12:29:58;8.90;;;5.40;;
75512;SDS011;64090;49.770;18.760;2023-11-21T12:33:02;6.80;;;4.10;;
75512;SDS011;64090;49.770;18.760;2023-11-21T12:36:06;11.60;;;4.70;;
75512;SDS011;64090;49.770;18.760;2023-11-21T12:39:13;34.70;;;18.90;;
75512;SDS011;64090;49.770;18.760;2023-11-21T12:42:17;23.40;;;14.90;;
75512;SDS011;64090;49.770;18.760;2023-11-21T12:45:21;9.30;;;6.00;;
75512;SDS011;64090;49.770;18.760;2023-11-21T12:48:28;15.20;;;11.90;;
75512;SDS011;64090;49.770;18.760;2023-11-21T12:51:32;10.30;;;6.90;;
75512;SDS011;64090;49.770;18.760;2023-11-21T12:54:36;16.00;;;7.40;;
75512;SDS011;64090;49.770;18.760;2023-11-21T12:57:40;15.20;;;9.50;;
75512;SDS011;64090;49.770;18.760;2023-11-21T13:00:46;27.10;;;9.70;;
75512;SDS011;64090;49.770;18.760;2023-11-21T13:03:50;45.50;;;15.90;;
75512;SDS011;64090;49.770;18.760;2023-11-21T13:06:54;25.90;;;12.60;;
75512;SDS011;64090;49.770;18.760;2023-11-21T13:09:58;15.70;;;7.90;;
75512;SDS011;64090;49.770;18.760;2023-11-21T13:13:05;11.10;;;6.70;;
75512;SDS011;64090;49.770;18.760;2023-11-21T13:16:12;9.60;;;5.80;;
75512;SDS011;64090;49.770;18.760;2023-11-21T13:19:15;12.00;;;8.90;;
75512;SDS011;64090;49.770;18.760;2023-11-21T13:22:18;14.50;;;8.30;;
75512;SDS011;64090;49.770;18.760;2023-11-21T13:25:23;34.10;;;12.30;;
75512;SDS011;64090;49.770;18.760;2023-11-21T13:28:26;17.50;;;7.80;;
75512;SDS011;64090;49.770;18.760;2023-11-21T13:31:34;11.10;;;6.10;;
75512;SDS011;64090;49.770;18.760;2023-11-21T13:34:40;13.00;;;6.10;;
75512;SDS011;64090;49.770;18.760;2023-11-21T13:37:48;20.30;;;9.20;;
75512;SDS011;64090;49.770;18.760;2023-11-21T13:40:54;26.90;;;12.70;;
75512;SDS011;64090;49.770;18.760;2023-11-21T13:43:58;36.20;;;21.60;;
75512;SDS011;64090;49.770;18.760;2023-11-21T13:47:30;18.80;;;15.80;;
75512;SDS011;64090;49.770;18.760;2023-11-21T13:50:33;15.70;;;10.70;;
75512;SDS011;64090;49.770;18.760;2023-11-21T13:53:38;14.30;;;9.00;;
75512;SDS011;64090;49.770;18.760;2023-11-21T13:56:42;13.20;;;9.00;;
75512;SDS011;64090;49.770;18.760;2023-11-21T13:59:47;22.20;;;11.20;;
75512;SDS011;64090;49.770;18.760;2023-11-21T14:02:51;21.40;;;12.10;;
75512;SDS011;64090;49.770;18.760;2023-11-21T14:05:54;33.90;;;18.10;;
75512;SDS011;64090;49.770;18.760;2023-11-21T14:08:58;20.10;;;11.90;;
75512;SDS011;64090;49.770;18.760;2023-11-21T14:12:03;22.00;;;11.00;;
75512;SDS011;64090;49.770;18.760;2023-11-21T14:15:09;16.10;;;11.00;;
75512;SDS011;64090;49.770;18.760;2023-11-21T14:18:14;14.40;;;8.40;;
75512;SDS011;64090;49.770;18.760;2023-11-21T14:21:19;14.20;;;8.30;;
75512;SDS011;64090;49.770;18.760;2023-11-21T14:24:22;14.70;;;8.80;;
75512;SDS011;64090;49.770;18.760;2023-11-21T14:27:26;17.50;;;10.50;;
75512;SDS011;64090;49.770;18.760;2023-11-21T14:30:30;15.80;;;9.60;;
75512;SDS011;64090;49.770;18.760;2023-11-21T14:33:35;16.30;;;9.90;;
75512;SDS011;64090;49.770;18.760;2023-11-21T14:36:39;16.80;;;9.70;;
75512;SDS011;64090;49.770;18.760;2023-11-21T14:39:42;21.60;;;13.00;;
75512;SDS011;64090;49.770;18.760;2023-11-21T14:42:52;14.80;;;9.80;;
75512;SDS011;64090;49.770;18.760;2023-11-21T14:45:56;19.40;;;10.90;;
75512;SDS011;64090;49.770;18.760;2023-11-21T14:49:01;14.80;;;8.80;;
75512;SDS011;64090;49.770;18.760;2023-11-21T14:52:22;14.60;;;7.30;;
75512;SDS011;64090;49.770;18.760;2023-11-21T14:55:37;8.80;;;4.90;;
75512;SDS011;64090;49.770;18.760;2023-11-21T14:58:59;11.70;;;7.00;;
75512;SDS011;64090;49.770;18.760;2023-11-21T15:02:10;14.60;;;8.00;;
75512;SDS011;64090;49.770;18.760;2023-11-21T15:05:24;9.70;;;6.10;;
75512;SDS011;64090;49.770;18.760;2023-11-21T15:08:28;9.00;;;5.90;;
75512;SDS011;64090;49.770;18.760;2023-11-21T15:11:34;9.10;;;5.70;;
75512;SDS011;64090;49.770;18.760;2023-11-21T15:14:50;8.10;;;5.20;;
75512;SDS011;64090;49.770;18.760;2023-11-21T15:17:59;8.40;;;4.90;;
75512;SDS011;64090;49.770;18.760;2023-11-21T15:21:02;17.70;;;10.00;;
75512;SDS011;64090;49.770;18.760;2023-11-21T15:24:07;32.60;;;16.60;;
75512;SDS011;64090;49.770;18.760;2023-11-21T15:27:10;22.60;;;10.70;;
75512;SDS011;64090;49.770;18.760;2023-11-21T15:30:14;23.00;;;12.40;;
75512;SDS011;64090;49.770;18.760;2023-11-21T15:33:18;27.90;;;13.20;;
75512;SDS011;64090;49.770;18.760;2023-11-21T15:36:21;33.00;;;15.60;;
75512;SDS011;64090;49.770;18.760;2023-11-21T15:39:24;35.90;;;16.70;;
75512;SDS011;64090;49.770;18.760;2023-11-21T15:42:31;40.50;;;16.80;;
75512;SDS011;64090;49.770;18.760;2023-11-21T15:45:34;25.80;;;13.20;;
75512;SDS011;64090;49.770;18.760;2023-11-21T15:48:37;34.60;;;16.00;;
75512;SDS011;64090;49.770;18.760;2023-11-21T15:51:43;22.50;;;11.90;;
75512;SDS011;64090;49.770;18.760;2023-11-21T15:54:55;16.80;;;7.80;;
75512;SDS011;64090;49.770;18.760;2023-11-21T15:57:59;12.50;;;7.00;;
75512;SDS011;64090;49.770;18.760;2023-11-21T16:01:02;12.70;;;7.00;;
75512;SDS011;64090;49.770;18.760;2023-11-21T16:04:05;10.30;;;5.70;;
75512;SDS011;64090;49.770;18.760;2023-11-21T16:07:09;9.60;;;5.50;;
75512;SDS011;64090;49.770;18.760;2023-11-21T16:10:16;8.00;;;5.30;;
75512;SDS011;64090;49.770;18.760;2023-11-21T16:13:19;7.60;;;5.00;;
75512;SDS011;64090;49.770;18.760;2023-11-21T16:16:22;8.50;;;5.40;;
75512;SDS011;64090;49.770;18.760;2023-11-21T16:19:25;9.00;;;5.10;;
75512;SDS011;64090;49.770;18.760;2023-11-21T16:22:28;10.40;;;6.00;;
75512;SDS011;64090;49.770;18.760;2023-11-21T16:25:32;13.20;;;7.00;;
75512;SDS011;64090;49.770;18.760;2023-11-21T16:28:35;14.50;;;7.40;;
75512;SDS011;64090;49.770;18.760;2023-11-21T16:31:39;18.90;;;9.60;;
75512;SDS011;64090;49.770;18.760;2023-11-21T16:34:43;25.20;;;12.50;;
75512;SDS011;64090;49.770;18.760;2023-11-21T16:37:47;24.20;;;13.80;;
75512;SDS011;64090;49.770;18.760;2023-11-21T16:40:50;23.20;;;16.10;;
75512;SDS011;64090;49.770;18.760;2023-11-21T16:43:53;31.40;;;20.20;;
75512;SDS011;64090;49.770;18.760;2023-11-21T16:46:56;30.10;;;19.50;;
75512;SDS011;64090;49.770;18.760;2023-11-21T16:50:02;32.20;;;19.90;;
75512;SDS011;64090;49.770;18.760;2023-11-21T16:53:11;28.00;;;19.00;;
75512;SDS011;64090;49.770;18.760;2023-11-21T16:56:14;31.20;;;19.30;;
75512;SDS011;64090;49.770;18.760;2023-11-21T16:59:17;22.40;;;13.80;;
75512;SDS011;64090;49.770;18.760;2023-11-21T17:02:20;21.60;;;12.80;;
75512;SDS011;64090;49.770;18.760;2023-11-21T17:05:23;20.20;;;11.30;;
75512;SDS011;64090;49.770;18.760;2023-11-21T17:08:26;20.40;;;11.30;;
75512;SDS011;64090;49.770;18.760;2023-11-21T17:11:30;21.40;;;11.30;;
75512;SDS011;64090;49.770;18.760;2023-11-21T17:14:33;28.70;;;18.00;;
75512;SDS011;64090;49.770;18.760;2023-11-21T17:17:36;31.70;;;22.10;;
75512;SDS011;64090;49.770;18.760;2023-11-21T17:20:40;26.80;;;17.60;;
75512;SDS011;64090;49.770;18.760;2023-11-21T17:23:43;21.40;;;11.60;;
75512;SDS011;64090;49.770;18.760;2023-11-21T17:26:46;21.80;;;13.10;;
75512;SDS011;64090;49.770;18.760;2023-11-21T17:29:49;24.80;;;13.30;;
75512;SDS011;64090;49.770;18.760;2023-11-21T17:32:55;25.70;;;14.50;;
75512;SDS011;64090;49.770;18.760;2023-11-21T17:35:59;25.70;;;14.80;;
75512;SDS011;64090;49.770;18.760;2023-11-21T17:39:02;26.50;;;14.40;;
75512;SDS011;64090;49.770;18.760;2023-11-21T17:42:09;25.30;;;14.00;;
75512;SDS011;64090;49.770;18.760;2023-11-21T17:45:12;42.10;;;25.30;;
75512;SDS011;64090;49.770;18.760;2023-11-21T17:48:16;49.80;;;28.90;;
75512;SDS011;64090;49.770;18.760;2023-11-21T17:51:19;30.50;;;17.80;;
75512;SDS011;64090;49.770;18.760;2023-11-21T17:54:22;14.70;;;9.00;;
75512;SDS011;64090;49.770;18.760;2023-11-21T17:57:25;34.60;;;22.00;;
75512;SDS011;64090;49.770;18.760;2023-11-21T18:00:29;30.90;;;16.50;;
75512;SDS011;64090;49.770;18.760;2023-11-21T18:03:32;32.20;;;20.40;;
75512;SDS011;64090;49.770;18.760;2023-11-21T18:06:35;23.70;;;13.50;;
75512;SDS011;64090;49.770;18.760;2023-11-21T18:09:38;28.30;;;14.60;;
75512;SDS011;64090;49.770;18.760;2023-11-21T18:12:42;38.50;;;20.00;;
75512;SDS011;64090;49.770;18.760;2023-11-21T18:15:45;28.70;;;13.60;;
75512;SDS011;64090;49.770;18.760;2023-11-21T18:18:48;38.20;;;20.20;;
75512;SDS011;64090;49.770;18.760;2023-11-21T18:21:52;34.50;;;18.90;;
75512;SDS011;64090;49.770;18.760;2023-11-21T18:24:55;30.30;;;16.30;;